sensor_id;sensor_type;location;lat;lon;timestamp;P1;durP1;ratioP1;P2;durP2;ratioP2
77022;SDS011;65952;51.440;-2.054;2023-09-07T00:01:46;13.27;;;7.68;;
77022;SDS011;65952;51.440;-2.054;2023-09-07T00:04:12;18.23;;;8.07;;
77022;SDS011;65952;51.440;-2.054;2023-09-07T00:06:40;13.63;;;7.80;;
77022;SDS011;65952;51.440;-2.054;2023-09-07T00:09:08;17.13;;;7.50;;
77022;SDS011;65952;51.440;-2.054;2023-09-07T00:11:36;18.33;;;8.35;;
77022;SDS011;65952;51.440;-2.054;2023-09-07T00:14:02;16.15;;;8.40;;
77022;SDS011;65952;51.440;-2.054;2023-09-07T00:16:27;16.33;;;8.35;;
77022;SDS011;65952;51.440;-2.054;2023-09-07T00:18:53;17.58;;;8.32;;
77022;SDS011;65952;51.440;-2.054;2023-09-07T00:21:18;17.92;;;8.77;;
77022;SDS011;65952;51.440;-2.054;2023-09-07T00:23:44;12.88;;;7.35;;
77022;SDS011;65952;51.440;-2.054;2023-09-07T00:26:09;16.15;;;7.07;;
77022;SDS011;65952;51.440;-2.054;2023-09-07T00:28:37;14.52;;;8.02;;
77022;SDS011;65952;51.440;-2.054;2023-09-07T00:31:03;14.63;;;8.27;;
77022;SDS011;65952;51.440;-2.054;2023-09-07T00:33:28;18.73;;;9.02;;
77022;SDS011;65952;51.440;-2.054;2023-09-07T00:35:54;15.25;;;9.32;;
77022;SDS011;65952;51.440;-2.054;2023-09-07T00:38:19;15.85;;;9.35;;
77022;SDS011;65952;51.440;-2.054;2023-09-07T00:40:48;18.23;;;9.73;;
77022;SDS011;65952;51.440;-2.054;2023-09-07T00:43:13;18.10;;;10.13;;
77022;SDS011;65952;51.440;-2.054;2023-09-07T00:45:39;15.88;;;8.80;;
77022;SDS011;65952;51.440;-2.054;2023-09-07T00:48:05;17.98;;;9.90;;
77022;SDS011;65952;51.440;-2.054;2023-09-07T00:50:31;18.88;;;9.93;;
77022;SDS011;65952;51.440;-2.054;2023-09-07T00:52:56;22.95;;;10.82;;
77022;SDS011;65952;51.440;-2.054;2023-09-07T00:55:24;15.75;;;9.68;;
77022;SDS011;65952;51.440;-2.054;2023-09-07T00:57:51;16.90;;;10.20;;
77022;SDS011;65952;51.440;-2.054;2023-09-07T01:00:17;20.80;;;10.60;;
77022;SDS011;65952;51.440;-2.054;2023-09-07T01:02:42;16.95;;;9.88;;
77022;SDS011;65952;51.440;-2.054;2023-09-07T01:05:09;22.83;;;10.30;;
77022;SDS011;65952;51.440;-2.054;2023-09-07T01:07:50;21.35;;;10.70;;
77022;SDS011;65952;51.440;-2.054;2023-09-07T01:10:24;15.23;;;9.90;;
77022;SDS011;65952;51.440;-2.054;2023-09-07T01:12:49;16.50;;;9.35;;
77022;SDS011;65952;51.440;-2.054;2023-09-07T01:15:14;16.70;;;9.82;;
77022;SDS011;65952;51.440;-2.054;2023-09-07T01:17:40;17.10;;;10.05;;
77022;SDS011;65952;51.440;-2.054;2023-09-07T01:20:06;19.33;;;9.88;;
77022;SDS011;65952;51.440;-2.054;2023-09-07T01:22:35;17.52;;;10.35;;
77022;SDS011;65952;51.440;-2.054;2023-09-07T01:25:02;16.80;;;10.32;;
77022;SDS011;65952;51.440;-2.054;2023-09-07T01:27:27;16.80;;;9.88;;
77022;SDS011;65952;51.440;-2.054;2023-09-07T01:29:53;16.08;;;10.60;;
77022;SDS011;65952;51.440;-2.054;2023-09-07T01:32:19;17.42;;;10.05;;
77022;SDS011;65952;51.440;-2.054;2023-09-07T01:34:45;23.52;;;9.63;;
77022;SDS011;65952;51.440;-2.054;2023-09-07T01:37:10;20.42;;;9.40;;
77022;SDS011;65952;51.440;-2.054;2023-09-07T01:39:35;16.10;;;9.20;;
77022;SDS011;65952;51.440;-2.054;2023-09-07T01:42:01;19.30;;;10.10;;
77022;SDS011;65952;51.440;-2.054;2023-09-07T01:44:27;21.15;;;10.68;;
77022;SDS011;65952;51.440;-2.054;2023-09-07T01:46:54;21.30;;;9.38;;
77022;SDS011;65952;51.440;-2.054;2023-09-07T01:49:20;19.58;;;9.77;;
77022;SDS011;65952;51.440;-2.054;2023-09-07T01:51:45;20.65;;;10.05;;
77022;SDS011;65952;51.440;-2.054;2023-09-07T01:54:11;19.95;;;9.80;;
77022;SDS011;65952;51.440;-2.054;2023-09-07T01:56:36;17.48;;;9.57;;
77022;SDS011;65952;51.440;-2.054;2023-09-07T01:59:02;22.33;;;10.38;;
77022;SDS011;65952;51.440;-2.054;2023-09-07T02:01:29;21.23;;;9.40;;
77022;SDS011;65952;51.440;-2.054;2023-09-07T02:03:55;18.02;;;9.45;;
77022;SDS011;65952;51.440;-2.054;2023-09-07T02:06:21;17.95;;;10.20;;
77022;SDS011;65952;51.440;-2.054;2023-09-07T02:08:47;16.90;;;9.13;;
77022;SDS011;65952;51.440;-2.054;2023-09-07T02:11:13;20.70;;;9.93;;
77022;SDS011;65952;51.440;-2.054;2023-09-07T02:13:42;18.40;;;9.75;;
77022;SDS011;65952;51.440;-2.054;2023-09-07T02:16:08;20.25;;;10.68;;
77022;SDS011;65952;51.440;-2.054;2023-09-07T02:18:33;15.05;;;10.05;;
77022;SDS011;65952;51.440;-2.054;2023-09-07T02:21:02;18.40;;;9.95;;
77022;SDS011;65952;51.440;-2.054;2023-09-07T02:23:29;18.35;;;10.38;;
77022;SDS011;65952;51.440;-2.054;2023-09-07T02:25:57;17.48;;;10.07;;
77022;SDS011;65952;51.440;-2.054;2023-09-07T02:28:24;21.90;;;10.07;;
77022;SDS011;65952;51.440;-2.054;2023-09-07T02:30:50;18.80;;;9.90;;
77022;SDS011;65952;51.440;-2.054;2023-09-07T02:33:15;17.13;;;10.00;;
77022;SDS011;65952;51.440;-2.054;2023-09-07T02:35:41;19.35;;;10.55;;
77022;SDS011;65952;51.440;-2.054;2023-09-07T02:38:09;17.35;;;10.18;;
77022;SDS011;65952;51.440;-2.054;2023-09-07T02:40:41;16.60;;;10.98;;
77022;SDS011;65952;51.440;-2.054;2023-09-07T02:43:07;19.00;;;11.10;;
77022;SDS011;65952;51.440;-2.054;2023-09-07T02:45:33;20.38;;;10.48;;
77022;SDS011;65952;51.440;-2.054;2023-09-07T02:47:59;20.63;;;10.73;;
77022;SDS011;65952;51.440;-2.054;2023-09-07T02:50:24;25.35;;;10.88;;
77022;SDS011;65952;51.440;-2.054;2023-09-07T02:52:50;19.42;;;11.38;;
77022;SDS011;65952;51.440;-2.054;2023-09-07T02:55:15;18.90;;;11.68;;
77022;SDS011;65952;51.440;-2.054;2023-09-07T02:57:41;18.90;;;11.45;;
77022;SDS011;65952;51.440;-2.054;2023-09-07T03:00:06;20.05;;;11.77;;
77022;SDS011;65952;51.440;-2.054;2023-09-07T03:02:34;22.30;;;10.85;;
77022;SDS011;65952;51.440;-2.054;2023-09-07T03:05:00;22.33;;;11.77;;
77022;SDS011;65952;51.440;-2.054;2023-09-07T03:07:26;20.60;;;11.85;;
77022;SDS011;65952;51.440;-2.054;2023-09-07T03:09:52;20.00;;;12.25;;
77022;SDS011;65952;51.440;-2.054;2023-09-07T03:12:17;19.10;;;11.95;;
77022;SDS011;65952;51.440;-2.054;2023-09-07T03:14:43;18.50;;;11.63;;
77022;SDS011;65952;51.440;-2.054;2023-09-07T03:17:09;19.88;;;12.38;;
77022;SDS011;65952;51.440;-2.054;2023-09-07T03:19:35;21.73;;;11.77;;
77022;SDS011;65952;51.440;-2.054;2023-09-07T03:22:02;19.75;;;11.32;;
77022;SDS011;65952;51.440;-2.054;2023-09-07T03:24:28;20.40;;;11.77;;
77022;SDS011;65952;51.440;-2.054;2023-09-07T03:26:53;21.48;;;11.93;;
77022;SDS011;65952;51.440;-2.054;2023-09-07T03:29:19;19.45;;;12.15;;
77022;SDS011;65952;51.440;-2.054;2023-09-07T03:31:45;19.38;;;12.30;;
77022;SDS011;65952;51.440;-2.054;2023-09-07T03:34:10;24.33;;;13.45;;
77022;SDS011;65952;51.440;-2.054;2023-09-07T03:36:35;21.20;;;13.20;;
77022;SDS011;65952;51.440;-2.054;2023-09-07T03:39:01;21.08;;;12.50;;
77022;SDS011;65952;51.440;-2.054;2023-09-07T03:41:27;21.17;;;12.95;;
77022;SDS011;65952;51.440;-2.054;2023-09-07T03:43:56;18.45;;;12.45;;
77022;SDS011;65952;51.440;-2.054;2023-09-07T03:46:22;20.77;;;13.13;;
77022;SDS011;65952;51.440;-2.054;2023-09-07T03:48:47;22.95;;;13.65;;
77022;SDS011;65952;51.440;-2.054;2023-09-07T03:51:12;20.58;;;13.05;;
77022;SDS011;65952;51.440;-2.054;2023-09-07T03:53:38;20.85;;;13.23;;
77022;SDS011;65952;51.440;-2.054;2023-09-07T03:56:04;22.48;;;13.50;;
77022;SDS011;65952;51.440;-2.054;2023-09-07T03:58:29;20.08;;;13.60;;
77022;SDS011;65952;51.440;-2.054;2023-09-07T04:00:55;20.83;;;12.85;;
77022;SDS011;65952;51.440;-2.054;2023-09-07T04:03:23;22.52;;;13.70;;
77022;SDS011;65952;51.440;-2.054;2023-09-07T04:05:49;22.15;;;13.95;;
77022;SDS011;65952;51.440;-2.054;2023-09-07T04:08:15;24.42;;;14.13;;
77022;SDS011;65952;51.440;-2.054;2023-09-07T04:10:40;24.05;;;14.35;;
77022;SDS011;65952;51.440;-2.054;2023-09-07T04:13:06;21.77;;;13.55;;
77022;SDS011;65952;51.440;-2.054;2023-09-07T04:15:32;21.85;;;14.35;;
77022;SDS011;65952;51.440;-2.054;2023-09-07T04:18:07;22.30;;;13.98;;
77022;SDS011;65952;51.440;-2.054;2023-09-07T04:20:33;22.08;;;13.30;;
77022;SDS011;65952;51.440;-2.054;2023-09-07T04:22:58;21.15;;;13.38;;
77022;SDS011;65952;51.440;-2.054;2023-09-07T04:25:23;22.45;;;13.65;;
77022;SDS011;65952;51.440;-2.054;2023-09-07T04:27:49;21.10;;;13.35;;
77022;SDS011;65952;51.440;-2.054;2023-09-07T04:30:14;21.38;;;14.40;;
77022;SDS011;65952;51.440;-2.054;2023-09-07T04:32:39;23.23;;;14.38;;
77022;SDS011;65952;51.440;-2.054;2023-09-07T04:35:05;25.65;;;15.68;;
77022;SDS011;65952;51.440;-2.054;2023-09-07T04:37:31;27.90;;;17.70;;
77022;SDS011;65952;51.440;-2.054;2023-09-07T04:39:56;24.13;;;16.23;;
77022;SDS011;65952;51.440;-2.054;2023-09-07T04:42:22;25.75;;;15.05;;
77022;SDS011;65952;51.440;-2.054;2023-09-07T04:44:47;24.38;;;15.20;;
77022;SDS011;65952;51.440;-2.054;2023-09-07T04:47:12;27.00;;;15.63;;
77022;SDS011;65952;51.440;-2.054;2023-09-07T04:49:38;25.77;;;16.15;;
77022;SDS011;65952;51.440;-2.054;2023-09-07T04:52:04;26.40;;;14.70;;
77022;SDS011;65952;51.440;-2.054;2023-09-07T04:54:30;23.60;;;15.52;;
77022;SDS011;65952;51.440;-2.054;2023-09-07T04:56:55;25.45;;;15.85;;
77022;SDS011;65952;51.440;-2.054;2023-09-07T04:59:20;26.30;;;15.73;;
77022;SDS011;65952;51.440;-2.054;2023-09-07T05:01:46;23.92;;;15.20;;
77022;SDS011;65952;51.440;-2.054;2023-09-07T05:04:11;25.27;;;15.40;;
77022;SDS011;65952;51.440;-2.054;2023-09-07T05:06:37;25.20;;;15.40;;
77022;SDS011;65952;51.440;-2.054;2023-09-07T05:09:03;23.25;;;14.82;;
77022;SDS011;65952;51.440;-2.054;2023-09-07T05:11:29;24.83;;;16.17;;
77022;SDS011;65952;51.440;-2.054;2023-09-07T05:13:54;25.02;;;15.90;;
77022;SDS011;65952;51.440;-2.054;2023-09-07T05:16:19;22.92;;;14.95;;
77022;SDS011;65952;51.440;-2.054;2023-09-07T05:18:45;22.67;;;15.15;;
77022;SDS011;65952;51.440;-2.054;2023-09-07T05:21:14;24.10;;;16.42;;
77022;SDS011;65952;51.440;-2.054;2023-09-07T05:23:40;26.98;;;16.75;;
77022;SDS011;65952;51.440;-2.054;2023-09-07T05:26:06;23.90;;;15.52;;
77022;SDS011;65952;51.440;-2.054;2023-09-07T05:28:31;26.83;;;16.00;;
77022;SDS011;65952;51.440;-2.054;2023-09-07T05:30:57;26.42;;;16.25;;
77022;SDS011;65952;51.440;-2.054;2023-09-07T05:33:22;24.20;;;16.48;;
77022;SDS011;65952;51.440;-2.054;2023-09-07T05:35:47;28.75;;;16.55;;
77022;SDS011;65952;51.440;-2.054;2023-09-07T05:38:13;30.08;;;16.90;;
77022;SDS011;65952;51.440;-2.054;2023-09-07T05:40:39;25.98;;;16.38;;
77022;SDS011;65952;51.440;-2.054;2023-09-07T05:43:09;27.80;;;16.42;;
77022;SDS011;65952;51.440;-2.054;2023-09-07T05:45:35;25.75;;;15.85;;
77022;SDS011;65952;51.440;-2.054;2023-09-07T05:48:02;25.30;;;15.57;;
77022;SDS011;65952;51.440;-2.054;2023-09-07T05:50:28;22.95;;;14.57;;
77022;SDS011;65952;51.440;-2.054;2023-09-07T05:52:54;24.33;;;14.75;;
77022;SDS011;65952;51.440;-2.054;2023-09-07T05:55:19;23.15;;;14.85;;
77022;SDS011;65952;51.440;-2.054;2023-09-07T05:57:45;22.92;;;15.05;;
77022;SDS011;65952;51.440;-2.054;2023-09-07T06:00:10;23.85;;;15.00;;
77022;SDS011;65952;51.440;-2.054;2023-09-07T06:02:36;22.42;;;14.52;;
77022;SDS011;65952;51.440;-2.054;2023-09-07T06:05:02;20.63;;;14.35;;
77022;SDS011;65952;51.440;-2.054;2023-09-07T06:07:28;23.80;;;14.10;;
77022;SDS011;65952;51.440;-2.054;2023-09-07T06:09:53;25.35;;;14.80;;
77022;SDS011;65952;51.440;-2.054;2023-09-07T06:12:18;20.88;;;13.52;;
77022;SDS011;65952;51.440;-2.054;2023-09-07T06:14:44;21.73;;;14.18;;
77022;SDS011;65952;51.440;-2.054;2023-09-07T06:17:11;21.17;;;14.15;;
77022;SDS011;65952;51.440;-2.054;2023-09-07T06:19:37;23.10;;;13.77;;
77022;SDS011;65952;51.440;-2.054;2023-09-07T06:22:02;25.73;;;14.05;;
77022;SDS011;65952;51.440;-2.054;2023-09-07T06:24:27;20.40;;;13.93;;
77022;SDS011;65952;51.440;-2.054;2023-09-07T06:26:53;22.63;;;14.50;;
77022;SDS011;65952;51.440;-2.054;2023-09-07T06:29:18;22.02;;;13.43;;
77022;SDS011;65952;51.440;-2.054;2023-09-07T06:31:43;19.55;;;12.65;;
77022;SDS011;65952;51.440;-2.054;2023-09-07T06:34:09;20.13;;;12.88;;
77022;SDS011;65952;51.440;-2.054;2023-09-07T06:36:35;22.52;;;13.10;;
77022;SDS011;65952;51.440;-2.054;2023-09-07T06:39:00;18.70;;;12.93;;
77022;SDS011;65952;51.440;-2.054;2023-09-07T06:41:26;19.30;;;12.45;;
77022;SDS011;65952;51.440;-2.054;2023-09-07T06:43:52;19.63;;;12.80;;
77022;SDS011;65952;51.440;-2.054;2023-09-07T06:46:17;19.52;;;12.23;;
77022;SDS011;65952;51.440;-2.054;2023-09-07T06:48:43;19.98;;;12.95;;
77022;SDS011;65952;51.440;-2.054;2023-09-07T06:51:08;21.30;;;12.70;;
77022;SDS011;65952;51.440;-2.054;2023-09-07T06:53:37;22.95;;;12.82;;
77022;SDS011;65952;51.440;-2.054;2023-09-07T06:56:03;21.92;;;13.07;;
77022;SDS011;65952;51.440;-2.054;2023-09-07T06:58:28;23.33;;;13.13;;
77022;SDS011;65952;51.440;-2.054;2023-09-07T07:01:00;20.08;;;12.30;;
77022;SDS011;65952;51.440;-2.054;2023-09-07T07:03:27;19.63;;;13.15;;
77022;SDS011;65952;51.440;-2.054;2023-09-07T07:05:54;19.58;;;13.27;;
77022;SDS011;65952;51.440;-2.054;2023-09-07T07:08:20;22.08;;;13.32;;
77022;SDS011;65952;51.440;-2.054;2023-09-07T07:10:45;21.45;;;13.15;;
77022;SDS011;65952;51.440;-2.054;2023-09-07T07:13:10;18.42;;;12.57;;
77022;SDS011;65952;51.440;-2.054;2023-09-07T07:15:36;20.27;;;12.98;;
77022;SDS011;65952;51.440;-2.054;2023-09-07T07:18:01;20.50;;;12.45;;
77022;SDS011;65952;51.440;-2.054;2023-09-07T07:20:33;24.75;;;13.65;;
77022;SDS011;65952;51.440;-2.054;2023-09-07T07:23:03;21.80;;;12.40;;
77022;SDS011;65952;51.440;-2.054;2023-09-07T07:25:28;21.67;;;11.88;;
77022;SDS011;65952;51.440;-2.054;2023-09-07T07:27:56;21.52;;;11.95;;
77022;SDS011;65952;51.440;-2.054;2023-09-07T07:30:21;23.70;;;12.48;;
77022;SDS011;65952;51.440;-2.054;2023-09-07T07:32:47;22.27;;;12.68;;
77022;SDS011;65952;51.440;-2.054;2023-09-07T07:35:12;19.25;;;11.85;;
77022;SDS011;65952;51.440;-2.054;2023-09-07T07:37:39;28.55;;;12.65;;
77022;SDS011;65952;51.440;-2.054;2023-09-07T07:40:04;28.90;;;13.38;;
77022;SDS011;65952;51.440;-2.054;2023-09-07T07:42:31;19.42;;;11.88;;
77022;SDS011;65952;51.440;-2.054;2023-09-07T07:44:57;18.02;;;11.40;;
77022;SDS011;65952;51.440;-2.054;2023-09-07T07:47:22;17.92;;;11.65;;
77022;SDS011;65952;51.440;-2.054;2023-09-07T07:49:48;19.92;;;11.73;;
77022;SDS011;65952;51.440;-2.054;2023-09-07T07:52:13;16.65;;;11.13;;
77022;SDS011;65952;51.440;-2.054;2023-09-07T07:54:38;21.42;;;11.90;;
77022;SDS011;65952;51.440;-2.054;2023-09-07T07:57:04;25.15;;;11.90;;
77022;SDS011;65952;51.440;-2.054;2023-09-07T07:59:29;20.48;;;11.55;;
77022;SDS011;65952;51.440;-2.054;2023-09-07T08:01:54;19.48;;;12.00;;
77022;SDS011;65952;51.440;-2.054;2023-09-07T08:04:20;26.90;;;13.05;;
77022;SDS011;65952;51.440;-2.054;2023-09-07T08:06:45;19.45;;;12.52;;
77022;SDS011;65952;51.440;-2.054;2023-09-07T08:09:11;18.73;;;11.48;;
77022;SDS011;65952;51.440;-2.054;2023-09-07T08:11:36;17.80;;;11.82;;
77022;SDS011;65952;51.440;-2.054;2023-09-07T08:14:03;17.92;;;12.25;;
77022;SDS011;65952;51.440;-2.054;2023-09-07T08:16:28;18.95;;;12.07;;
77022;SDS011;65952;51.440;-2.054;2023-09-07T08:18:54;22.45;;;12.43;;
77022;SDS011;65952;51.440;-2.054;2023-09-07T08:21:19;23.02;;;12.75;;
77022;SDS011;65952;51.440;-2.054;2023-09-07T08:23:44;17.48;;;11.75;;
77022;SDS011;65952;51.440;-2.054;2023-09-07T08:26:10;18.83;;;11.73;;
77022;SDS011;65952;51.440;-2.054;2023-09-07T08:28:35;22.17;;;12.13;;
77022;SDS011;65952;51.440;-2.054;2023-09-07T08:31:01;18.75;;;11.60;;
77022;SDS011;65952;51.440;-2.054;2023-09-07T08:33:26;17.15;;;11.48;;
77022;SDS011;65952;51.440;-2.054;2023-09-07T08:35:55;15.23;;;11.38;;
77022;SDS011;65952;51.440;-2.054;2023-09-07T08:38:22;15.05;;;10.43;;
77022;SDS011;65952;51.440;-2.054;2023-09-07T08:40:51;15.95;;;10.60;;
77022;SDS011;65952;51.440;-2.054;2023-09-07T08:43:19;16.58;;;10.38;;
77022;SDS011;65952;51.440;-2.054;2023-09-07T08:45:46;17.17;;;10.45;;
77022;SDS011;65952;51.440;-2.054;2023-09-07T08:48:17;16.15;;;10.45;;
77022;SDS011;65952;51.440;-2.054;2023-09-07T08:50:44;18.08;;;11.07;;
77022;SDS011;65952;51.440;-2.054;2023-09-07T08:53:17;17.60;;;11.10;;
77022;SDS011;65952;51.440;-2.054;2023-09-07T08:55:44;20.27;;;10.55;;
77022;SDS011;65952;51.440;-2.054;2023-09-07T08:58:09;21.27;;;11.30;;
77022;SDS011;65952;51.440;-2.054;2023-09-07T09:00:35;24.30;;;11.43;;
77022;SDS011;65952;51.440;-2.054;2023-09-07T09:03:02;14.88;;;10.57;;
77022;SDS011;65952;51.440;-2.054;2023-09-07T09:05:28;14.68;;;10.32;;
77022;SDS011;65952;51.440;-2.054;2023-09-07T09:08:02;16.02;;;10.57;;
77022;SDS011;65952;51.440;-2.054;2023-09-07T09:10:29;14.15;;;10.48;;
77022;SDS011;65952;51.440;-2.054;2023-09-07T09:12:54;15.57;;;10.48;;
77022;SDS011;65952;51.440;-2.054;2023-09-07T09:15:21;14.75;;;10.48;;
77022;SDS011;65952;51.440;-2.054;2023-09-07T09:17:46;16.55;;;11.40;;
77022;SDS011;65952;51.440;-2.054;2023-09-07T09:20:22;15.27;;;9.98;;
77022;SDS011;65952;51.440;-2.054;2023-09-07T09:22:50;16.20;;;10.32;;
77022;SDS011;65952;51.440;-2.054;2023-09-07T09:25:17;16.48;;;10.75;;
77022;SDS011;65952;51.440;-2.054;2023-09-07T09:27:42;15.50;;;10.20;;
77022;SDS011;65952;51.440;-2.054;2023-09-07T09:30:07;17.08;;;10.57;;
77022;SDS011;65952;51.440;-2.054;2023-09-07T09:32:33;15.68;;;10.35;;
77022;SDS011;65952;51.440;-2.054;2023-09-07T09:34:59;15.63;;;10.30;;
77022;SDS011;65952;51.440;-2.054;2023-09-07T09:37:25;14.88;;;9.63;;
77022;SDS011;65952;51.440;-2.054;2023-09-07T09:39:51;20.77;;;10.32;;
77022;SDS011;65952;51.440;-2.054;2023-09-07T09:42:18;16.73;;;9.57;;
77022;SDS011;65952;51.440;-2.054;2023-09-07T09:44:45;15.52;;;9.77;;
77022;SDS011;65952;51.440;-2.054;2023-09-07T09:47:12;14.20;;;9.30;;
77022;SDS011;65952;51.440;-2.054;2023-09-07T09:49:38;15.52;;;9.18;;
77022;SDS011;65952;51.440;-2.054;2023-09-07T09:52:05;13.82;;;9.30;;
77022;SDS011;65952;51.440;-2.054;2023-09-07T09:54:32;17.75;;;9.40;;
77022;SDS011;65952;51.440;-2.054;2023-09-07T09:57:00;20.40;;;10.05;;
77022;SDS011;65952;51.440;-2.054;2023-09-07T09:59:25;13.52;;;8.38;;
77022;SDS011;65952;51.440;-2.054;2023-09-07T10:01:52;12.95;;;8.98;;
77022;SDS011;65952;51.440;-2.054;2023-09-07T10:04:19;12.20;;;8.75;;
77022;SDS011;65952;51.440;-2.054;2023-09-07T10:06:54;13.43;;;7.78;;
77022;SDS011;65952;51.440;-2.054;2023-09-07T10:09:33;13.10;;;7.20;;
77022;SDS011;65952;51.440;-2.054;2023-09-07T10:11:59;13.32;;;7.40;;
77022;SDS011;65952;51.440;-2.054;2023-09-07T10:14:25;11.73;;;7.60;;
77022;SDS011;65952;51.440;-2.054;2023-09-07T10:16:51;13.38;;;7.18;;
77022;SDS011;65952;51.440;-2.054;2023-09-07T10:19:19;13.40;;;7.10;;
77022;SDS011;65952;51.440;-2.054;2023-09-07T10:21:46;11.82;;;7.72;;
77022;SDS011;65952;51.440;-2.054;2023-09-07T10:24:12;12.30;;;6.88;;
77022;SDS011;65952;51.440;-2.054;2023-09-07T10:26:59;9.10;;;5.15;;
77022;SDS011;65952;51.440;-2.054;2023-09-07T10:29:26;9.38;;;5.65;;
77022;SDS011;65952;51.440;-2.054;2023-09-07T10:31:53;9.10;;;5.60;;
77022;SDS011;65952;51.440;-2.054;2023-09-07T10:34:18;7.93;;;4.93;;
77022;SDS011;65952;51.440;-2.054;2023-09-07T10:36:45;8.60;;;5.32;;
77022;SDS011;65952;51.440;-2.054;2023-09-07T10:39:11;11.57;;;5.10;;
77022;SDS011;65952;51.440;-2.054;2023-09-07T10:41:41;7.72;;;5.25;;
77022;SDS011;65952;51.440;-2.054;2023-09-07T10:44:08;8.40;;;5.60;;
77022;SDS011;65952;51.440;-2.054;2023-09-07T10:46:35;8.80;;;5.53;;
77022;SDS011;65952;51.440;-2.054;2023-09-07T10:49:02;9.32;;;5.30;;
77022;SDS011;65952;51.440;-2.054;2023-09-07T10:51:28;8.90;;;5.07;;
77022;SDS011;65952;51.440;-2.054;2023-09-07T10:53:54;10.65;;;6.15;;
77022;SDS011;65952;51.440;-2.054;2023-09-07T10:56:20;9.77;;;6.13;;
77022;SDS011;65952;51.440;-2.054;2023-09-07T10:58:49;11.15;;;6.53;;
77022;SDS011;65952;51.440;-2.054;2023-09-07T11:01:19;10.55;;;5.72;;
77022;SDS011;65952;51.440;-2.054;2023-09-07T11:03:45;12.30;;;6.20;;
77022;SDS011;65952;51.440;-2.054;2023-09-07T11:08:36;8.50;;;6.07;;
77022;SDS011;65952;51.440;-2.054;2023-09-07T11:11:02;12.70;;;6.47;;
77022;SDS011;65952;51.440;-2.054;2023-09-07T11:13:28;11.10;;;5.35;;
77022;SDS011;65952;51.440;-2.054;2023-09-07T11:15:54;9.90;;;5.72;;
77022;SDS011;65952;51.440;-2.054;2023-09-07T11:18:21;13.02;;;5.70;;
77022;SDS011;65952;51.440;-2.054;2023-09-07T11:20:48;8.10;;;4.97;;
77022;SDS011;65952;51.440;-2.054;2023-09-07T11:23:14;11.73;;;5.10;;
77022;SDS011;65952;51.440;-2.054;2023-09-07T11:25:39;9.63;;;5.85;;
77022;SDS011;65952;51.440;-2.054;2023-09-07T11:28:05;13.13;;;6.32;;
77022;SDS011;65952;51.440;-2.054;2023-09-07T11:30:31;10.23;;;5.15;;
77022;SDS011;65952;51.440;-2.054;2023-09-07T11:33:04;7.95;;;4.82;;
77022;SDS011;65952;51.440;-2.054;2023-09-07T11:35:32;11.15;;;5.57;;
77022;SDS011;65952;51.440;-2.054;2023-09-07T11:37:59;8.93;;;5.20;;
77022;SDS011;65952;51.440;-2.054;2023-09-07T11:40:33;10.13;;;5.65;;
77022;SDS011;65952;51.440;-2.054;2023-09-07T11:42:58;9.57;;;5.20;;
77022;SDS011;65952;51.440;-2.054;2023-09-07T11:45:24;12.50;;;5.05;;
77022;SDS011;65952;51.440;-2.054;2023-09-07T11:47:49;6.60;;;4.45;;
77022;SDS011;65952;51.440;-2.054;2023-09-07T11:50:16;6.13;;;4.47;;
77022;SDS011;65952;51.440;-2.054;2023-09-07T11:52:42;9.90;;;4.65;;
77022;SDS011;65952;51.440;-2.054;2023-09-07T11:55:08;8.20;;;4.78;;
77022;SDS011;65952;51.440;-2.054;2023-09-07T11:57:35;13.38;;;4.72;;
77022;SDS011;65952;51.440;-2.054;2023-09-07T12:00:01;10.10;;;5.45;;
77022;SDS011;65952;51.440;-2.054;2023-09-07T12:02:26;8.48;;;4.75;;
77022;SDS011;65952;51.440;-2.054;2023-09-07T12:04:52;6.88;;;4.30;;
77022;SDS011;65952;51.440;-2.054;2023-09-07T12:07:17;6.50;;;4.40;;
77022;SDS011;65952;51.440;-2.054;2023-09-07T12:09:42;6.53;;;4.28;;
77022;SDS011;65952;51.440;-2.054;2023-09-07T12:12:08;8.25;;;4.03;;
77022;SDS011;65952;51.440;-2.054;2023-09-07T12:14:35;6.05;;;4.07;;
77022;SDS011;65952;51.440;-2.054;2023-09-07T12:17:01;7.70;;;4.28;;
77022;SDS011;65952;51.440;-2.054;2023-09-07T12:19:26;6.53;;;3.80;;
77022;SDS011;65952;51.440;-2.054;2023-09-07T12:21:51;6.57;;;4.10;;
77022;SDS011;65952;51.440;-2.054;2023-09-07T12:24:17;9.30;;;4.13;;
77022;SDS011;65952;51.440;-2.054;2023-09-07T12:26:42;7.20;;;4.43;;
77022;SDS011;65952;51.440;-2.054;2023-09-07T12:29:07;9.20;;;4.25;;
77022;SDS011;65952;51.440;-2.054;2023-09-07T12:31:33;8.73;;;4.30;;
77022;SDS011;65952;51.440;-2.054;2023-09-07T12:33:58;7.93;;;4.38;;
77022;SDS011;65952;51.440;-2.054;2023-09-07T12:36:24;8.38;;;4.20;;
77022;SDS011;65952;51.440;-2.054;2023-09-07T12:38:53;7.95;;;3.92;;
77022;SDS011;65952;51.440;-2.054;2023-09-07T12:41:18;6.47;;;4.13;;
77022;SDS011;65952;51.440;-2.054;2023-09-07T12:43:44;13.30;;;4.20;;
77022;SDS011;65952;51.440;-2.054;2023-09-07T12:46:09;7.63;;;4.57;;
77022;SDS011;65952;51.440;-2.054;2023-09-07T12:48:35;7.63;;;4.45;;
77022;SDS011;65952;51.440;-2.054;2023-09-07T12:51:00;7.57;;;4.60;;
77022;SDS011;65952;51.440;-2.054;2023-09-07T12:53:25;7.22;;;4.35;;
77022;SDS011;65952;51.440;-2.054;2023-09-07T12:55:52;6.60;;;3.92;;
77022;SDS011;65952;51.440;-2.054;2023-09-07T12:58:18;7.70;;;4.43;;
77022;SDS011;65952;51.440;-2.054;2023-09-07T13:00:43;9.63;;;5.15;;
77022;SDS011;65952;51.440;-2.054;2023-09-07T13:03:09;10.73;;;4.40;;
77022;SDS011;65952;51.440;-2.054;2023-09-07T13:05:34;8.23;;;4.00;;
77022;SDS011;65952;51.440;-2.054;2023-09-07T13:08:01;7.22;;;3.92;;
77022;SDS011;65952;51.440;-2.054;2023-09-07T13:10:27;7.20;;;4.22;;
77022;SDS011;65952;51.440;-2.054;2023-09-07T13:12:52;7.85;;;4.18;;
77022;SDS011;65952;51.440;-2.054;2023-09-07T13:15:18;8.45;;;4.20;;
77022;SDS011;65952;51.440;-2.054;2023-09-07T13:17:43;7.70;;;4.28;;
77022;SDS011;65952;51.440;-2.054;2023-09-07T13:20:09;6.63;;;4.03;;
77022;SDS011;65952;51.440;-2.054;2023-09-07T13:22:35;6.15;;;4.00;;
77022;SDS011;65952;51.440;-2.054;2023-09-07T13:25:00;7.72;;;4.10;;
77022;SDS011;65952;51.440;-2.054;2023-09-07T13:27:26;6.60;;;4.30;;
77022;SDS011;65952;51.440;-2.054;2023-09-07T13:29:51;7.05;;;4.57;;
77022;SDS011;65952;51.440;-2.054;2023-09-07T13:32:17;8.05;;;4.32;;
77022;SDS011;65952;51.440;-2.054;2023-09-07T13:34:43;7.70;;;4.55;;
77022;SDS011;65952;51.440;-2.054;2023-09-07T13:37:08;8.70;;;4.60;;
77022;SDS011;65952;51.440;-2.054;2023-09-07T13:39:34;6.80;;;4.13;;
77022;SDS011;65952;51.440;-2.054;2023-09-07T13:41:59;6.03;;;4.13;;
77022;SDS011;65952;51.440;-2.054;2023-09-07T13:44:24;6.78;;;4.35;;
77022;SDS011;65952;51.440;-2.054;2023-09-07T13:46:50;9.10;;;5.05;;
77022;SDS011;65952;51.440;-2.054;2023-09-07T13:49:16;9.48;;;4.60;;
77022;SDS011;65952;51.440;-2.054;2023-09-07T13:51:41;8.80;;;4.15;;
77022;SDS011;65952;51.440;-2.054;2023-09-07T13:54:08;11.40;;;5.13;;
77022;SDS011;65952;51.440;-2.054;2023-09-07T13:56:34;8.50;;;4.40;;
77022;SDS011;65952;51.440;-2.054;2023-09-07T13:59:01;12.90;;;4.95;;
77022;SDS011;65952;51.440;-2.054;2023-09-07T14:01:26;9.45;;;4.60;;
77022;SDS011;65952;51.440;-2.054;2023-09-07T14:03:52;7.55;;;4.68;;
77022;SDS011;65952;51.440;-2.054;2023-09-07T14:06:18;7.00;;;3.97;;
77022;SDS011;65952;51.440;-2.054;2023-09-07T14:08:45;9.82;;;5.00;;
77022;SDS011;65952;51.440;-2.054;2023-09-07T14:11:11;10.77;;;4.97;;
77022;SDS011;65952;51.440;-2.054;2023-09-07T14:13:36;9.20;;;4.65;;